Time;durP1;ratioP1;P1;durP2;ratioP2;P2;SDS_P1;SDS_P2;PMS_P1;PMS_P2;Temp;Humidity;BMP_temperature;BMP_pressure;BME280_temperature;BME280_humidity;BME280_pressure;Samples;Min_cycle;Max_cycle;Signal;HPM_P1;HPM_P2
2022/02/03 00:22:21;;;;;;;3.20;2.17;;;;;;;18.66;45.13;98026.63;6225768;22;20700;-87
2022/02/03 00:30:10;;;;;;;2.50;2.30;;;;;;;18.59;45.26;98011.88;6244344;22;20253;-87
2022/02/03 00:51:18;;;;;;;3.80;2.33;;;;;;;17.20;45.16;97792.97;6331536;22;20183;-81
2022/02/03 00:53:45;;;;;;;2.70;2.30;;;;;;;17.55;44.77;97856.56;6303617;22;20419;-79
2022/02/03 00:56:16;;;;;;;3.10;2.30;;;;;;;19.19;44.77;98139.63;6329565;22;20174;-80
2022/02/03 00:58:51;;;;;;;3.27;2.60;;;;;;;19.18;45.01;98115.81;6305450;22;20185;-87
2022/02/03 01:01:25;;;;;;;2.10;1.90;;;;;;;13.78;45.14;97182.19;6305284;22;20513;-89
2022/02/03 01:03:51;;;;;;;3.10;2.17;;;;;;;19.16;45.12;98116.53;6304746;22;20554;-88
2022/02/03 01:06:20;;;;;;;3.40;2.30;;;;;;;16.11;45.08;97591.94;6331059;22;20522;-87
2022/02/03 01:08:50;;;;;;;2.83;2.10;;;;;;;19.15;45.16;98123.28;6303964;22;20227;-88
2022/02/03 01:11:22;;;;;;;2.93;2.43;;;;;;;18.60;45.16;98062.88;6304716;22;20649;-87
2022/02/03 01:14:01;;;;;;;2.87;2.43;;;;;;;14.37;45.03;97294.94;6305696;22;20179;-87
2022/02/03 01:20:21;;;;;;;2.43;2.23;;;;;;;19.16;45.19;98116.53;6307952;22;20178;-87
2022/02/03 01:44:30;;;;;;;3.33;2.40;;;;;;;13.41;44.81;97175.06;6308070;22;20171;-81
2022/02/03 01:47:12;;;;;;;2.50;2.30;;;;;;;17.96;45.07;97868.00;6308289;22;20158;-79
2022/02/03 01:52:35;;;;;;;2.70;2.20;;;;;;;19.24;45.09;98088.06;6331487;22;20189;-78
2022/02/03 01:55:04;;;;;;;2.57;2.37;;;;;;;18.33;44.69;97935.91;6329703;22;20182;-81
2022/02/03 01:58:04;;;;;;;2.30;2.10;;;;;;;19.27;45.06;98097.56;6329466;22;20560;-79
2022/02/03 02:01:01;;;;;;;2.53;2.10;;;;;;;17.00;45.00;97752.97;6321732;22;20745;-82
2022/02/03 02:03:40;;;;;;;3.73;2.60;;;;;;;17.34;44.86;97764.91;6298811;22;20216;-81
2022/02/03 02:06:31;;;;;;;2.93;2.27;;;;;;;19.27;44.81;98095.88;6327066;22;20178;-81
2022/02/03 02:09:18;;;;;;;2.77;2.30;;;;;;;19.28;44.81;98090.00;6303899;22;20162;-80
2022/02/03 02:12:16;;;;;;;2.87;2.50;;;;;;;19.28;44.90;98086.56;6331799;22;20193;-80
2022/02/03 02:40:49;;;;;;;4.27;2.80;;;;;;;19.22;44.91;98068.41;6305871;22;20649;-83
2022/02/03 02:43:45;;;;;;;2.60;2.17;;;;;;;18.90;44.95;98015.06;6268040;22;1205647;-82
2022/02/03 02:46:23;;;;;;;2.87;2.10;;;;;;;18.87;44.80;98009.84;6332744;22;20201;-80
2022/02/03 02:48:56;;;;;;;2.67;2.20;;;;;;;19.21;44.97;98079.38;6330980;22;20159;-79
2022/02/03 02:51:29;;;;;;;2.97;2.20;;;;;;;17.55;44.98;97861.66;6331812;22;20178;-81
2022/02/03 02:55:13;;;;;;;2.30;2.10;;;;;;;16.78;44.89;97694.34;6330040;22;20270;-80
2022/02/03 03:33:22;;;;;;;2.67;2.27;;;;;;;12.67;44.87;96972.53;6306505;22;20571;-86
2022/02/03 03:38:22;;;;;;;2.73;2.10;;;;;;;12.63;45.15;97025.22;6304877;22;20162;-86
2022/02/03 03:40:55;;;;;;;3.03;2.40;;;;;;;9.43;45.07;96393.38;6305835;22;20211;-87
2022/02/03 03:44:03;;;;;;;2.60;2.13;;;;;;;12.26;45.03;96847.63;6304997;22;20577;-86
2022/02/03 03:46:36;;;;;;;2.43;2.13;;;;;;;19.12;45.29;98033.97;6304346;22;20178;-88
2022/02/03 03:49:27;;;;;;;2.10;1.90;;;;;;;17.33;45.25;97722.53;6330524;22;20181;-86
2022/02/03 03:52:01;;;;;;;2.97;2.27;;;;;;;18.27;45.30;97880.53;6332052;22;20201;-80
2022/02/03 03:54:48;;;;;;;2.37;2.17;;;;;;;18.78;45.04;97967.00;6304461;22;20256;-80
2022/02/03 05:13:27;;;;;;;2.33;1.93;;;;;;;18.82;45.11;97939.97;6331804;22;20251;-79
2022/02/03 05:32:56;;;;;;;2.50;1.90;;;;;;;15.87;44.80;97407.38;6331698;22;20578;-80
2022/02/03 05:45:04;;;;;;;2.20;2.00;;;;;;;18.43;44.48;97838.88;6309905;22;20216;-79
2022/02/03 06:09:18;;;;;;;2.30;2.10;;;;;;;18.80;44.72;97913.59;6305386;22;20178;-80
2022/02/03 06:14:23;;;;;;;2.83;2.20;;;;;;;19.21;44.55;97959.63;6330669;22;20236;-81
2022/02/03 06:40:51;;;;;;;2.73;2.53;;;;;;;14.59;44.16;97123.31;6362333;22;20209;-89
2022/02/03 06:43:18;;;;;;;2.40;2.20;;;;;;;19.31;44.25;97927.06;6316392;22;20143;-85
2022/02/03 06:45:49;;;;;;;2.47;2.27;;;;;;;18.75;44.61;97825.94;6306882;22;20257;-83
2022/02/03 06:48:18;;;;;;;2.30;2.10;;;;;;;18.83;44.18;97845.84;6257690;22;20900;-84
2022/02/03 06:50:51;;;;;;;2.30;2.10;;;;;;;18.94;44.09;97874.31;6253785;22;20194;-85
2022/02/03 06:53:22;;;;;;;2.87;2.50;;;;;;;18.70;43.82;97819.75;6255576;22;20165;-86
2022/02/03 06:56:03;;;;;;;3.70;3.30;;;;;;;18.76;43.38;97850.59;6254587;22;20258;-85
2022/02/03 07:03:31;;;;;;;7.40;5.13;;;;;;;16.04;41.86;97411.56;6316182;22;20213;-89
2022/02/03 07:46:30;;;;;;;5.87;4.00;;;;;;;15.05;42.96;97189.69;6331852;22;20193;-86
2022/02/03 07:48:58;;;;;;;4.73;3.63;;;;;;;18.92;42.70;97822.47;6253307;22;20212;-86
2022/02/03 07:51:24;;;;;;;5.00;3.70;;;;;;;18.68;42.90;97775.56;6282051;22;20251;-86
2022/02/03 07:53:51;;;;;;;4.80;3.63;;;;;;;19.02;42.82;97840.78;6282120;22;20281;-85
2022/02/03 07:56:18;;;;;;;5.83;3.83;;;;;;;17.67;42.97;97600.50;6255309;22;20197;-84
2022/02/03 08:04:10;;;;;;;4.77;3.93;;;;;;;15.18;43.28;97256.94;6367665;22;20138;-89
2022/02/03 09:34:34;;;;;;;5.10;3.57;;;;;;;18.30;42.77;97615.19;6329381;22;20556;-84
2022/02/03 09:55:12;;;;;;;3.43;3.13;;;;;;;12.93;42.81;96698.25;6369263;22;20164;-90
2022/02/03 09:58:19;;;;;;;4.50;3.63;;;;;;;15.41;43.05;97200.75;6334863;22;20198;-90
2022/02/03 10:01:24;;;;;;;6.83;6.23;;;;;;;14.08;42.63;96864.63;6342103;22;20181;-85
2022/02/03 10:04:02;;;;;;;7.73;6.93;;;;;;;17.30;42.80;97419.25;6310663;22;20223;-85
2022/02/03 10:06:29;;;;;;;7.03;6.30;;;;;;;18.46;42.77;97649.03;6262965;22;20186;-87
2022/02/03 10:08:55;;;;;;;7.40;6.60;;;;;;;17.86;42.89;97521.72;6310144;22;20205;-85
2022/02/03 10:11:26;;;;;;;6.17;5.57;;;;;;;18.92;42.87;97703.63;6284142;22;20683;-86
2022/02/03 10:13:57;;;;;;;6.30;5.70;;;;;;;18.69;43.05;97686.53;6259347;22;20223;-87
2022/02/03 10:16:26;;;;;;;6.37;5.63;;;;;;;18.99;42.81;97715.84;6258779;22;20219;-86
2022/02/03 10:19:16;;;;;;;7.10;6.20;;;;;;;19.58;42.93;97805.00;6258921;22;20171;-88
2022/02/03 10:21:43;;;;;;;6.10;5.50;;;;;;;17.78;43.02;97493.44;6309256;22;20190;-86
2022/02/03 11:05:46;;;;;;;5.17;4.30;;;;;;;18.64;42.89;97572.59;6292699;22;20166;-87
2022/02/03 11:07:43;;;;;;;4.60;4.13;;;;;;;19.66;42.86;97738.19;6285382;22;20948;-88
2022/02/03 11:10:58;;;;;;;4.33;3.90;;;;;;;18.78;42.79;97595.28;6262022;22;20241;-86
2022/02/03 11:12:57;;;;;;;4.00;3.53;;;;;;;18.08;42.66;97465.88;6281911;22;20174;-86
2022/02/03 11:15:26;;;;;;;4.20;3.80;;;;;;;18.98;42.85;97612.22;6284018;22;20183;-86
2022/02/03 11:17:55;;;;;;;3.87;3.53;;;;;;;19.06;42.66;97630.34;6259766;22;20697;-87
2022/02/03 11:20:24;;;;;;;4.70;3.83;;;;;;;18.52;42.68;97546.63;6258213;22;20197;-85
2022/02/03 11:22:58;;;;;;;4.23;3.83;;;;;;;19.01;42.82;97611.47;6257969;22;20630;-86
2022/02/03 12:21:59;;;;;;;3.03;2.73;;;;;;;19.40;43.69;97547.72;6281180;22;20218;-83
2022/02/03 12:24:53;;;;;;;2.63;2.43;;;;;;;18.47;43.64;97383.59;6292048;22;20198;-87
2022/02/03 12:27:44;;;;;;;2.80;2.60;;;;;;;19.31;43.78;97521.00;6287579;22;20162;-87
2022/02/03 12:31:06;;;;;;;2.60;2.40;;;;;;;19.02;43.67;97462.94;6267151;22;20157;-85
2022/02/03 12:38:30;;;;;;;2.90;2.70;;;;;;;18.81;43.58;97421.38;6331987;22;20216;-82
2022/02/03 12:41:11;;;;;;;2.50;2.30;;;;;;;18.88;43.66;97441.16;6282169;22;20162;-78
2022/02/03 12:43:41;;;;;;;3.00;2.70;;;;;;;18.03;43.42;97290.25;6279023;22;20246;-80
2022/02/03 12:46:07;;;;;;;3.10;2.80;;;;;;;16.94;43.46;97103.75;6273219;22;20195;-80
2022/02/03 12:48:35;;;;;;;4.33;2.80;;;;;;;17.41;43.53;97174.22;6272350;22;20217;-82
2022/02/03 12:51:02;;;;;;;2.67;2.47;;;;;;;17.37;43.46;97160.50;6273213;22;20271;-80
2022/02/03 12:53:33;;;;;;;2.70;2.50;;;;;;;18.93;43.60;97432.91;6270576;22;20261;-81
2022/02/03 12:56:05;;;;;;;2.87;2.60;;;;;;;18.54;43.52;97374.53;6273263;22;20281;-80
2022/02/03 12:58:39;;;;;;;2.40;2.20;;;;;;;18.15;43.42;97289.88;6299180;22;20191;-80
2022/02/03 13:01:12;;;;;;;2.43;2.23;;;;;;;18.27;43.89;97292.00;6273359;22;20194;-81
2022/02/03 13:03:45;;;;;;;2.60;2.40;;;;;;;19.05;43.43;97418.09;6249432;22;20174;-79
2022/02/03 13:06:16;;;;;;;2.97;2.70;;;;;;;17.10;43.41;97070.53;6299004;22;20274;-82
2022/02/03 13:08:50;;;;;;;2.90;2.40;;;;;;;19.03;43.41;97404.44;6272917;22;20206;-82
2022/02/03 13:11:52;;;;;;;2.50;2.30;;;;;;;19.22;43.52;97442.50;6272053;22;20191;-81
2022/02/03 13:23:10;;;;;;;2.43;2.23;;;;;;;18.70;43.64;97341.19;6274199;22;20186;-82
2022/02/03 13:30:56;;;;;;;2.40;2.20;;;;;;;19.07;43.84;97408.81;6300662;22;20689;-81
2022/02/03 13:33:52;;;;;;;2.20;2.00;;;;;;;18.89;43.76;97372.47;6280103;22;20198;-81
2022/02/03 13:36:20;;;;;;;2.30;2.10;;;;;;;18.57;43.68;97316.09;6299596;22;20199;-79
2022/02/03 13:38:59;;;;;;;2.37;2.17;;;;;;;18.36;43.90;97267.81;6278405;22;20568;-80
2022/02/03 13:41:31;;;;;;;2.10;1.80;;;;;;;19.12;43.90;97408.97;6300695;22;20190;-81
2022/02/03 13:44:03;;;;;;;2.37;2.17;;;;;;;17.63;43.80;97149.72;6275072;22;20607;-81
2022/02/03 13:46:31;;;;;;;2.20;2.00;;;;;;;17.41;43.89;97114.09;6299340;22;20195;-81
2022/02/03 13:48:59;;;;;;;2.20;1.90;;;;;;;18.43;43.96;97279.97;6275427;22;20302;-90
2022/02/03 13:51:27;;;;;;;2.20;2.00;;;;;;;19.06;43.58;97440.19;6275811;22;20171;-89
2022/02/03 14:16:45;;;;;;;2.10;1.90;;;;;;;18.07;43.85;97146.31;6275416;22;20296;-79
2022/02/03 14:21:58;;;;;;;2.33;2.13;;;;;;;19.14;43.86;97353.88;6276853;22;20637;-80
2022/02/03 14:27:19;;;;;;;1.87;1.73;;;;;;;19.23;43.99;97349.09;6277749;22;20191;-81
2022/02/03 14:29:49;;;;;;;2.17;1.97;;;;;;;19.08;44.24;97318.00;6299115;22;20191;-81
2022/02/03 14:32:20;;;;;;;2.00;1.80;;;;;;;18.52;43.90;97223.44;6298552;22;20229;-80
2022/02/03 14:34:49;;;;;;;3.20;2.00;;;;;;;18.17;43.55;97145.81;6274715;22;20198;-80
2022/02/03 14:42:40;;;;;;;3.40;1.70;;;;;;;19.19;43.92;97340.47;6299439;22;20565;-80
2022/02/03 14:45:07;;;;;;;2.07;1.70;;;;;;;19.47;43.71;97381.47;6273573;22;20174;-80
2022/02/03 14:47:34;;;;;;;2.13;1.93;;;;;;;18.57;43.94;97212.66;6298084;22;20174;-77
2022/02/03 14:50:02;;;;;;;1.90;1.80;;;;;;;17.28;43.81;96991.66;6297546;22;20635;-81
2022/02/03 14:58:24;;;;;;;1.90;1.80;;;;;;;18.37;44.04;97183.06;6297690;22;20206;-82
2022/02/03 15:00:51;;;;;;;1.60;1.50;;;;;;;16.62;43.93;96885.06;6299820;22;20189;-82
2022/02/03 15:03:19;;;;;;;1.70;1.60;;;;;;;18.89;44.07;97274.88;6298465;22;20217;-82
2022/02/03 15:05:52;;;;;;;1.73;1.63;;;;;;;16.56;44.15;96874.69;6274215;22;20197;-84
2022/02/03 15:08:21;;;;;;;1.67;1.57;;;;;;;18.80;44.39;97261.81;6297259;22;20199;-80
2022/02/03 15:15:57;;;;;;;1.73;1.63;;;;;;;17.86;44.18;97102.31;6275329;22;20237;-80
2022/02/03 15:18:24;;;;;;;1.83;1.73;;;;;;;19.31;44.36;97361.34;6274948;22;20236;-79
2022/02/03 15:20:51;;;;;;;1.80;1.70;;;;;;;18.81;44.42;97268.63;6301013;22;20249;-82
2022/02/03 15:23:18;;;;;;;1.80;1.70;;;;;;;17.85;44.63;97096.34;6275515;22;20230;-84
2022/02/03 15:25:44;;;;;;;2.03;1.93;;;;;;;19.31;44.36;97351.16;6274265;22;20559;-78
2022/02/03 15:28:11;;;;;;;1.87;1.77;;;;;;;18.94;44.12;97283.53;6272846;22;20245;-79
2022/02/03 15:30:37;;;;;;;2.10;1.83;;;;;;;18.96;45.14;97300.63;6274270;22;20196;-79
2022/02/03 15:33:07;;;;;;;1.80;1.70;;;;;;;19.28;44.43;97363.81;6300137;22;20179;-81
2022/02/03 15:35:39;;;;;;;2.10;1.90;;;;;;;18.97;44.59;97309.09;6299629;22;20289;-77
2022/02/03 15:38:08;;;;;;;2.27;1.80;;;;;;;18.87;44.58;97292.66;6300231;22;20189;-80
2022/02/03 15:40:37;;;;;;;1.70;1.60;;;;;;;18.89;44.40;97287.59;6299664;22;20182;-79
2022/02/03 15:43:07;;;;;;;1.80;1.70;;;;;;;18.93;44.70;97299.63;6299019;22;20202;-80
2022/02/03 15:45:40;;;;;;;1.73;1.63;;;;;;;18.00;44.47;97139.28;6275823;22;20289;-80
2022/02/03 15:48:33;;;;;;;1.77;1.67;;;;;;;18.87;44.33;97279.91;6300714;22;20163;-80
2022/02/03 16:17:45;;;;;;;1.80;1.70;;;;;;;18.25;44.65;97136.81;6299002;22;20254;-78
2022/02/03 16:52:51;;;;;;;1.70;1.60;;;;;;;18.70;44.39;97189.34;6298501;22;20665;-80
2022/02/03 16:55:22;;;;;;;1.63;1.53;;;;;;;18.92;44.50;97218.97;6299062;22;20589;-77
2022/02/03 16:57:51;;;;;;;1.60;1.50;;;;;;;18.05;44.43;97080.16;6300485;22;20619;-86
2022/02/03 17:00:18;;;;;;;2.30;2.10;;;;;;;18.65;44.53;97190.84;6301584;22;20186;-86
2022/02/03 17:02:56;;;;;;;4.57;2.40;;;;;;;18.26;44.58;97105.47;6278414;22;20163;-89
2022/02/03 17:05:23;;;;;;;5.70;2.60;;;;;;;19.23;44.56;97293.06;6276821;22;20583;-89
2022/02/03 17:07:50;;;;;;;2.40;2.20;;;;;;;16.36;44.58;96775.88;6281864;22;20167;-90
2022/02/03 17:10:17;;;;;;;2.27;1.90;;;;;;;19.24;44.58;97293.13;6303207;22;20194;-85
2022/02/03 17:12:43;;;;;;;2.73;2.40;;;;;;;17.19;44.84;96923.66;6302071;22;20214;-86
2022/02/03 17:15:10;;;;;;;2.57;2.37;;;;;;;19.25;44.43;97271.94;6276011;22;20241;-87
2022/02/03 17:17:37;;;;;;;1.80;1.70;;;;;;;18.16;44.63;97078.84;6277935;22;20277;-88
2022/02/03 17:20:04;;;;;;;2.20;2.00;;;;;;;16.65;44.55;96796.41;6279029;22;20205;-87
2022/02/03 17:22:36;;;;;;;2.53;2.00;;;;;;;15.97;44.35;96677.22;6306039;22;20175;-89
2022/02/03 17:25:12;;;;;;;1.93;1.83;;;;;;;17.54;44.69;96950.34;6304236;22;20638;-80
2022/02/03 17:27:55;;;;;;;1.93;1.83;;;;;;;19.30;44.51;97259.41;6304723;22;20833;-80
2022/02/03 17:30:49;;;;;;;2.17;1.97;;;;;;;18.34;44.39;97078.63;6301923;22;20249;-81
2022/02/03 18:03:14;;;;;;;2.57;2.30;;;;;;;18.78;44.16;97131.94;6280001;22;20606;-84
2022/02/03 18:11:45;;;;;;;2.20;2.00;;;;;;;19.18;44.02;97202.88;6278056;22;20155;-79
2022/02/03 18:19:51;;;;;;;2.30;2.10;;;;;;;18.81;44.25;97139.69;6300577;22;20258;-81
2022/02/03 18:49:48;;;;;;;2.53;2.33;;;;;;;17.99;44.86;97012.94;6284302;22;20253;-85
2022/02/03 18:52:03;;;;;;;2.37;2.17;;;;;;;18.56;44.73;97110.81;6293660;22;20633;-81
2022/02/03 18:54:53;;;;;;;2.47;2.20;;;;;;;18.59;44.64;97127.03;6265795;22;20545;-85
2022/02/03 19:22:18;;;;;;;4.10;2.50;;;;;;;18.62;45.04;97118.66;6290159;22;20158;-83
2022/02/03 20:53:54;;;;;;;2.83;2.63;;;;;;;11.48;44.23;95902.47;6298456;22;20478;-85
2022/02/03 20:56:25;;;;;;;3.67;2.80;;;;;;;12.91;44.16;96151.09;6254620;22;20190;-86
2022/02/03 20:59:10;;;;;;;3.10;2.80;;;;;;;14.34;44.26;96316.72;6257998;22;20213;-86
2022/02/03 21:01:51;;;;;;;3.20;2.90;;;;;;;13.34;44.37;96172.22;6257944;22;20316;-86
2022/02/03 21:04:33;;;;;;;3.30;3.00;;;;;;;15.38;44.37;96454.69;6259076;22;20247;-85
2022/02/03 21:07:10;;;;;;;3.10;2.80;;;;;;;15.89;44.13;96564.59;6259191;22;20717;-85
2022/02/03 21:09:49;;;;;;;2.90;2.70;;;;;;;14.30;44.34;96279.50;6262649;22;20182;-85
2022/02/03 21:12:19;;;;;;;3.13;2.83;;;;;;;15.52;44.09;96508.34;6253581;22;20703;-86
2022/02/03 21:14:54;;;;;;;3.47;3.17;;;;;;;14.98;43.94;96438.81;6279154;22;20527;-86
2022/02/03 21:17:26;;;;;;;3.50;3.20;;;;;;;15.52;43.96;96533.69;6256379;22;20198;-86
2022/02/03 21:20:07;;;;;;;3.03;2.83;;;;;;;15.37;43.71;96462.19;6257765;22;20661;-86
2022/02/03 21:22:37;;;;;;;3.77;3.40;;;;;;;14.92;44.33;96352.59;6257081;22;20182;-86
2022/02/03 21:25:27;;;;;;;3.43;3.13;;;;;;;11.33;43.64;95829.78;6279608;22;20174;-85
2022/02/03 21:27:56;;;;;;;3.73;3.30;;;;;;;18.02;44.19;96980.00;6258779;22;20194;-86
2022/02/03 21:30:23;;;;;;;3.60;3.30;;;;;;;14.49;43.91;96284.44;6253953;22;20182;-85
2022/02/03 21:32:50;;;;;;;4.00;3.53;;;;;;;13.95;43.68;96246.13;6253360;22;20174;-87
2022/02/03 21:35:22;;;;;;;3.50;3.20;;;;;;;15.43;44.03;96503.84;6279499;22;20668;-86
2022/02/03 21:37:50;;;;;;;3.40;3.10;;;;;;;15.24;43.64;96444.81;6255042;22;20585;-85
2022/02/03 21:40:18;;;;;;;4.27;3.87;;;;;;;16.89;44.05;96732.19;6278388;22;20174;-85
2022/02/03 21:42:47;;;;;;;4.33;3.83;;;;;;;14.43;44.08;96322.13;6252821;22;20174;-86
2022/02/03 21:45:17;;;;;;;4.00;3.70;;;;;;;13.42;43.93;96102.75;6279367;22;20154;-85
2022/02/03 21:47:47;;;;;;;4.10;3.70;;;;;;;11.48;43.64;95840.47;6282112;22;20201;-83
2022/02/03 21:50:19;;;;;;;3.77;3.47;;;;;;;15.13;44.34;96441.91;6306158;22;20196;-85
2022/02/03 21:52:49;;;;;;;4.10;3.73;;;;;;;16.72;44.50;96699.44;6282999;22;20525;-86
2022/02/03 21:55:16;;;;;;;4.20;3.80;;;;;;;12.93;44.18;96057.09;6281379;22;20175;-86
2022/02/03 21:57:49;;;;;;;4.20;3.80;;;;;;;18.03;44.41;96982.59;6330199;22;20202;-85
2022/02/03 22:00:16;;;;;;;4.30;3.90;;;;;;;13.47;44.12;96131.50;6307164;22;20660;-87
2022/02/03 22:02:44;;;;;;;4.40;4.00;;;;;;;14.28;44.30;96291.25;6306236;22;20204;-85
2022/02/03 22:05:13;;;;;;;4.87;4.43;;;;;;;11.01;44.15;95753.03;6331561;22;20514;-86
2022/02/03 22:07:44;;;;;;;5.77;4.37;;;;;;;15.16;44.11;96484.19;6280965;22;20260;-86
2022/02/03 22:45:02;;;;;;;4.90;4.20;;;;;;;14.95;44.19;96463.16;6305420;22;20174;-86
2022/02/03 22:48:23;;;;;;;5.23;4.47;;;;;;;13.16;44.09;96163.03;6332855;22;20289;-86
2022/02/03 22:50:24;;;;;;;4.53;4.10;;;;;;;14.94;44.65;96489.22;6283369;22;20629;-85
2022/02/03 22:52:52;;;;;;;4.70;4.30;;;;;;;14.44;44.56;96419.88;6256330;22;20219;-86
2022/02/03 22:55:19;;;;;;;5.60;4.70;;;;;;;14.62;44.30;96356.53;6279316;22;20216;-87
2022/02/03 22:58:01;;;;;;;5.53;4.37;;;;;;;13.19;44.25;96102.63;6254624;22;20198;-86
2022/02/03 23:01:05;;;;;;;5.53;4.70;;;;;;;15.03;44.32;96421.28;6262988;22;20170;-85
2022/02/03 23:03:35;;;;;;;5.03;4.43;;;;;;;13.91;44.03;96270.38;6283388;22;20186;-86
2022/02/03 23:06:04;;;;;;;5.00;4.50;;;;;;;12.15;44.31;95977.47;6305747;22;20584;-86
2022/02/03 23:14:36;;;;;;;5.40;4.90;;;;;;;11.58;44.14;95840.06;6288459;22;20158;-86
2022/02/03 23:22:36;;;;;;;4.70;4.30;;;;;;;12.21;44.17;95980.22;6265257;22;20170;-86
2022/02/03 23:25:05;;;;;;;5.33;4.83;;;;;;;15.66;44.52;96573.03;6279499;22;20259;-87
2022/02/03 23:30:25;;;;;;;6.40;5.03;;;;;;;12.48;44.60;96060.28;6287907;22;20568;-86
2022/02/03 23:32:55;;;;;;;5.90;5.30;;;;;;;14.33;44.46;96357.09;6254522;22;20162;-88
2022/02/03 23:35:28;;;;;;;5.10;4.60;;;;;;;15.09;44.37;96538.75;6256529;22;20174;-86
2022/02/03 23:38:03;;;;;;;5.80;5.13;;;;;;;11.08;44.03;95880.66;6280118;22;20228;-86
2022/02/03 23:51:51;;;;;;;5.37;4.87;;;;;;;15.05;44.52;96467.75;6282450;22;20173;-87
